createdAt,value
2019-04-16T00:02:27.590Z,11.87
2019-04-16T00:05:08.378Z,10.70
2019-04-16T00:07:52.559Z,11.70
2019-04-16T00:10:24.371Z,12.80
2019-04-16T00:13:12.714Z,10.60
2019-04-16T00:15:43.243Z,10.63
2019-04-16T00:18:13.565Z,10.73
2019-04-16T00:20:54.538Z,10.73
2019-04-16T00:23:32.854Z,9.70
2019-04-16T00:26:02.969Z,10.73
2019-04-16T00:28:33.282Z,9.70
2019-04-16T00:31:04.680Z,10.03
2019-04-16T00:33:35.988Z,10.30
2019-04-16T00:36:06.311Z,10.30
2019-04-16T00:38:41.043Z,10.67
2019-04-16T00:41:08.590Z,9.13
2019-04-16T00:43:38.922Z,9.57
2019-04-16T00:46:28.906Z,8.90
2019-04-16T00:48:59.434Z,9.80
2019-04-16T00:51:29.760Z,9.63
2019-04-16T00:53:59.876Z,9.30
2019-04-16T00:56:30.426Z,9.07
2019-04-16T00:59:01.138Z,9.67
2019-04-16T01:01:31.258Z,9.37
2019-04-16T01:04:01.582Z,9.70
2019-04-16T01:06:31.906Z,8.63
2019-04-16T01:09:02.435Z,9.43
2019-04-16T01:11:32.962Z,8.80
2019-04-16T01:14:03.287Z,9.43
2019-04-16T01:16:33.628Z,9.00
2019-04-16T01:19:03.934Z,9.23
2019-04-16T01:21:34.462Z,8.50
2019-04-16T01:24:05.605Z,9.03
2019-04-16T01:26:36.134Z,9.83
2019-04-16T01:29:10.643Z,8.63
2019-04-16T01:31:54.598Z,8.47
2019-04-16T01:34:43.150Z,9.17
2019-04-16T01:37:18.183Z,8.60
2019-04-16T01:39:53.225Z,8.37
2019-04-16T01:42:24.182Z,8.93
2019-04-16T01:44:54.479Z,8.00
2019-04-16T01:47:25.007Z,8.00
2019-04-16T01:49:55.332Z,8.03
2019-04-16T01:52:25.869Z,10.77
2019-04-16T01:54:56.389Z,8.03
2019-04-16T01:57:28.367Z,8.30
2019-04-16T01:59:58.265Z,7.80
2019-04-16T02:02:28.588Z,8.07
2019-04-16T02:04:59.007Z,7.97
2019-04-16T02:07:29.687Z,8.13
2019-04-16T02:10:00.746Z,8.17
2019-04-16T02:12:31.317Z,7.37
2019-04-16T02:15:01.647Z,7.10
2019-04-16T02:17:31.964Z,7.63
2019-04-16T02:20:05.509Z,7.63
2019-04-16T02:22:34.252Z,7.40
2019-04-16T02:25:05.660Z,7.63
2019-04-16T02:27:35.921Z,16.17
2019-04-16T02:30:06.946Z,12.77
2019-04-16T02:32:37.390Z,10.53
2019-04-16T02:35:08.725Z,8.40
2019-04-16T02:37:39.265Z,7.70
2019-04-16T02:40:16.907Z,7.30
2019-04-16T02:42:42.991Z,6.63
2019-04-16T02:45:14.215Z,6.70
2019-04-16T02:47:44.862Z,6.40
2019-04-16T02:50:18.830Z,6.07
2019-04-16T02:52:57.167Z,6.30
2019-04-16T02:55:45.943Z,5.90
2019-04-16T02:58:23.429Z,5.90
2019-04-16T03:01:01.536Z,5.57
2019-04-16T03:03:36.366Z,5.97
2019-04-16T03:06:07.097Z,5.60
2019-04-16T03:08:37.834Z,6.17
2019-04-16T03:11:08.134Z,5.93
2019-04-16T03:13:38.890Z,6.00
2019-04-16T03:16:19.657Z,5.77
2019-04-16T03:18:51.825Z,5.70
2019-04-16T03:21:24.521Z,6.03
2019-04-16T03:23:53.905Z,5.83
2019-04-16T03:26:24.435Z,5.73
2019-04-16T03:28:55.610Z,5.23
2019-04-16T03:31:26.515Z,5.93
2019-04-16T03:33:56.858Z,6.00
2019-04-16T03:36:39.084Z,5.90
2019-04-16T03:39:12.034Z,5.50
2019-04-16T03:41:41.121Z,5.80
2019-04-16T03:44:11.445Z,5.93
2019-04-16T03:46:46.084Z,5.70
2019-04-16T03:49:27.855Z,5.90
2019-04-16T03:51:57.576Z,6.27
2019-04-16T03:54:27.692Z,5.80
2019-04-16T03:57:01.830Z,6.00
2019-04-16T03:59:30.186Z,6.00
2019-04-16T04:02:15.052Z,6.60
2019-04-16T04:04:44.552Z,5.77
2019-04-16T04:07:15.078Z,5.67
2019-04-16T04:09:45.607Z,5.23
2019-04-16T04:12:16.175Z,5.70
2019-04-16T04:14:54.408Z,5.80
2019-04-16T04:17:25.999Z,5.90
2019-04-16T04:19:56.127Z,5.70
2019-04-16T04:22:26.697Z,6.10
2019-04-16T04:24:57.175Z,5.87
2019-04-16T04:27:27.909Z,6.03
2019-04-16T04:29:58.239Z,6.37
2019-04-16T04:32:28.556Z,6.57
2019-04-16T04:34:59.073Z,6.67
2019-04-16T04:37:31.239Z,6.33
2019-04-16T04:40:01.579Z,6.23
2019-04-16T04:42:31.899Z,7.47
2019-04-16T04:45:02.213Z,7.53
2019-04-16T04:47:32.546Z,6.50
2019-04-16T04:50:03.346Z,6.63
2019-04-16T04:52:34.833Z,8.60
2019-04-16T04:55:05.770Z,6.50
2019-04-16T04:57:36.096Z,6.27
2019-04-16T05:00:09.140Z,6.37
2019-04-16T05:02:40.018Z,7.67
2019-04-16T05:05:24.450Z,7.87
2019-04-16T05:07:53.380Z,6.73
2019-04-16T05:10:23.688Z,5.37
2019-04-16T05:12:54.422Z,6.53
2019-04-16T05:15:26.504Z,6.43
2019-04-16T05:17:56.296Z,7.13
2019-04-16T05:20:29.878Z,6.33
2019-04-16T05:23:00.023Z,6.33
2019-04-16T05:25:34.120Z,6.37
2019-04-16T05:28:03.829Z,6.80
2019-04-16T05:30:34.687Z,6.80
2019-04-16T05:33:05.577Z,6.50
2019-04-16T05:35:38.606Z,6.37
2019-04-16T05:38:10.150Z,6.87
2019-04-16T05:40:40.872Z,6.67
2019-04-16T05:43:11.619Z,7.83
2019-04-16T05:45:41.941Z,7.57
2019-04-16T05:48:12.674Z,7.67
2019-04-16T05:50:42.793Z,7.07
2019-04-16T05:53:13.786Z,6.47
2019-04-16T05:55:50.619Z,6.27
2019-04-16T05:58:41.210Z,7.23
2019-04-16T06:01:14.096Z,7.13
2019-04-16T06:04:04.178Z,6.87
2019-04-16T06:06:34.503Z,7.30
2019-04-16T06:09:11.942Z,7.87
2019-04-16T06:11:41.436Z,7.70
2019-04-16T06:14:17.951Z,8.37
2019-04-16T06:17:05.698Z,8.33
2019-04-16T06:19:47.508Z,8.30
2019-04-16T06:22:37.685Z,7.97
2019-04-16T06:25:26.727Z,8.03
2019-04-16T06:28:15.447Z,7.60
2019-04-16T06:30:47.768Z,7.43
2019-04-16T06:33:19.727Z,7.57
2019-04-16T06:36:08.735Z,11.60
2019-04-16T06:38:44.550Z,8.23
2019-04-16T06:41:40.433Z,8.77
2019-04-16T06:43:59.828Z,8.10
2019-04-16T06:46:48.078Z,8.50
2019-04-16T06:49:22.897Z,8.00
2019-04-16T06:52:07.364Z,8.40
2019-04-16T06:54:40.438Z,7.97
2019-04-16T06:57:16.896Z,8.07
2019-04-16T06:59:59.496Z,8.20
2019-04-16T07:03:01.370Z,8.23
2019-04-16T07:05:32.904Z,8.13
2019-04-16T07:08:21.191Z,8.13
2019-04-16T07:10:55.603Z,10.20
2019-04-16T07:13:26.198Z,7.70
2019-04-16T07:15:56.978Z,8.40
2019-04-16T07:18:27.813Z,7.77
2019-04-16T07:20:58.750Z,8.07
2019-04-16T07:23:29.276Z,8.00
2019-04-16T07:26:03.732Z,7.97
2019-04-16T07:28:35.151Z,8.57
2019-04-16T07:31:13.490Z,7.92
2019-04-16T07:33:49.831Z,7.47
2019-04-16T07:36:24.171Z,7.42
2019-04-16T07:38:55.182Z,9.95
2019-04-16T07:41:27.143Z,10.00
2019-04-16T07:44:08.175Z,9.53
2019-04-16T07:46:39.054Z,7.67
2019-04-16T07:49:12.456Z,8.08
2019-04-16T07:51:53.833Z,8.48
2019-04-16T07:54:34.807Z,8.25
2019-04-16T07:57:05.543Z,7.95
2019-04-16T07:59:36.068Z,8.05
2019-04-16T08:02:06.596Z,7.60
2019-04-16T08:04:36.921Z,7.62
2019-04-16T08:07:07.246Z,7.75
2019-04-16T08:09:37.776Z,7.30
2019-04-16T08:12:22.286Z,8.28
2019-04-16T08:14:39.861Z,7.42
2019-04-16T08:17:10.589Z,7.50
2019-04-16T08:19:40.903Z,7.45
2019-04-16T08:22:15.545Z,7.28
2019-04-16T08:24:50.763Z,7.37
2019-04-16T08:27:22.532Z,7.65
2019-04-16T08:29:53.062Z,7.12
2019-04-16T08:32:25.763Z,7.33
2019-04-16T08:34:56.167Z,7.47
2019-04-16T08:37:26.695Z,8.50
2019-04-16T08:39:56.803Z,7.50
2019-04-16T08:42:29.441Z,9.23
2019-04-16T08:44:58.396Z,7.97
2019-04-16T08:47:28.343Z,7.85
2019-04-16T08:49:58.566Z,6.28
2019-04-16T08:52:28.566Z,7.85
2019-04-16T08:54:58.575Z,6.53
2019-04-16T08:57:31.612Z,6.37
2019-04-16T09:00:00.420Z,5.60
2019-04-16T09:02:30.476Z,5.62
2019-04-16T09:05:00.381Z,5.50
2019-04-16T09:07:39.634Z,5.80
2019-04-16T09:10:19.246Z,4.90
2019-04-16T09:13:02.517Z,5.05
2019-04-16T09:15:22.236Z,4.55
2019-04-16T09:17:54.198Z,4.35
2019-04-16T09:20:26.458Z,6.55
2019-04-16T09:22:59.164Z,5.08
2019-04-16T09:25:33.771Z,4.80
2019-04-16T09:28:07.870Z,6.62
2019-04-16T09:30:42.407Z,4.87
2019-04-16T09:33:14.778Z,4.70
2019-04-16T09:36:02.306Z,4.22
2019-04-16T09:38:45.671Z,5.12
2019-04-16T09:41:19.951Z,5.55
2019-04-16T09:43:53.813Z,4.53
2019-04-16T09:46:49.064Z,5.42
2019-04-16T09:48:55.836Z,5.17
2019-04-16T09:51:26.420Z,5.40
2019-04-16T09:53:57.304Z,4.75
2019-04-16T09:56:30.042Z,4.90
2019-04-16T09:59:06.029Z,5.20
2019-04-16T10:01:38.719Z,5.37
2019-04-16T10:04:10.670Z,4.65
2019-04-16T10:06:41.209Z,5.78
2019-04-16T10:09:12.767Z,4.67
2019-04-16T10:11:44.910Z,4.58
2019-04-16T10:14:15.702Z,4.33
2019-04-16T10:16:46.208Z,5.20
2019-04-16T10:19:21.082Z,5.40
2019-04-16T10:21:53.452Z,5.42
2019-04-16T10:24:26.381Z,4.70
2019-04-16T10:27:00.006Z,5.08
2019-04-16T10:29:30.312Z,5.00
2019-04-16T10:32:00.843Z,5.00
2019-04-16T10:34:31.379Z,5.00
2019-04-16T10:37:02.747Z,5.28
2019-04-16T10:39:37.930Z,4.53
2019-04-16T10:42:21.991Z,4.03
2019-04-16T10:45:09.006Z,4.90
2019-04-16T10:47:40.609Z,3.85
2019-04-16T10:50:15.081Z,4.42
2019-04-16T10:52:56.292Z,4.72
2019-04-16T10:55:40.130Z,5.28
2019-04-16T10:58:27.995Z,4.10
2019-04-16T11:01:01.702Z,4.00
2019-04-16T11:03:36.073Z,4.12
2019-04-16T11:06:07.642Z,5.50
2019-04-16T11:08:37.667Z,5.30
2019-04-16T11:11:07.584Z,5.50
2019-04-16T11:13:39.299Z,7.40
2019-04-16T11:16:12.808Z,6.83
2019-04-16T11:18:43.326Z,4.12
2019-04-16T11:21:14.354Z,4.03
2019-04-16T11:23:44.822Z,4.42
2019-04-16T11:26:17.302Z,3.95
2019-04-16T11:28:47.786Z,3.95
2019-04-16T11:31:19.873Z,3.42
2019-04-16T11:33:50.823Z,4.08
2019-04-16T11:36:21.245Z,5.53
2019-04-16T11:39:11.410Z,4.85
2019-04-16T11:41:41.847Z,4.40
2019-04-16T11:44:16.169Z,4.30
2019-04-16T11:46:44.948Z,4.60
2019-04-16T11:49:15.317Z,5.37
2019-04-16T11:51:46.005Z,4.60
2019-04-16T11:54:16.390Z,5.53
2019-04-16T11:56:55.545Z,5.17
2019-04-16T11:59:25.492Z,4.75
2019-04-16T12:01:58.194Z,3.77
2019-04-16T12:04:36.673Z,4.55
2019-04-16T12:07:21.184Z,4.95
2019-04-16T12:10:10.299Z,5.78
2019-04-16T12:12:57.824Z,7.40
2019-04-16T12:15:29.981Z,4.65
2019-04-16T12:18:14.030Z,7.15
2019-04-16T12:20:48.692Z,4.92
2019-04-16T12:23:21.776Z,5.17
2019-04-16T12:26:10.427Z,4.37
2019-04-16T12:28:57.745Z,4.70
2019-04-16T12:31:36.229Z,5.20
2019-04-16T12:34:23.453Z,7.65
2019-04-16T12:37:13.791Z,5.08
2019-04-16T12:40:06.627Z,4.65
2019-04-16T12:42:42.221Z,4.92
2019-04-16T12:45:28.993Z,4.42
2019-04-16T12:48:04.397Z,5.33
2019-04-16T12:50:39.041Z,5.10
2019-04-16T12:53:21.225Z,4.37
2019-04-16T12:55:53.407Z,5.87
2019-04-16T12:58:35.193Z,4.00
2019-04-16T13:01:13.472Z,4.80
2019-04-16T13:03:57.743Z,4.03
2019-04-16T13:06:32.980Z,5.53
2019-04-16T13:09:24.193Z,4.35
2019-04-16T13:11:59.227Z,4.22
2019-04-16T13:14:30.985Z,5.67
2019-04-16T13:17:04.996Z,5.90
2019-04-16T13:19:49.080Z,3.90
2019-04-16T13:22:23.758Z,4.70
2019-04-16T13:25:13.510Z,4.22
2019-04-16T13:27:47.845Z,4.83
2019-04-16T13:30:17.478Z,6.97
2019-04-16T13:32:47.427Z,5.55
2019-04-16T13:35:17.539Z,6.03
2019-04-16T13:37:47.530Z,8.20
2019-04-16T13:40:18.952Z,8.00
2019-04-16T13:42:48.905Z,7.72
2019-04-16T13:45:25.641Z,7.50
2019-04-16T13:47:55.719Z,9.65
2019-04-16T13:50:27.132Z,6.30
2019-04-16T13:52:59.328Z,6.03
2019-04-16T13:55:44.673Z,5.30
2019-04-16T13:58:16.074Z,5.87
2019-04-16T14:01:02.756Z,5.25
2019-04-16T14:03:33.058Z,5.05
2019-04-16T14:06:03.077Z,5.45
2019-04-16T14:08:33.166Z,6.78
2019-04-16T14:11:03.166Z,3.95
2019-04-16T14:13:33.232Z,5.80
2019-04-16T14:16:04.450Z,6.10
2019-04-16T14:18:34.472Z,5.00
2019-04-16T14:21:04.596Z,8.90
2019-04-16T14:23:34.626Z,7.58
2019-04-16T14:26:04.699Z,5.92
2019-04-16T14:28:40.154Z,6.80
2019-04-16T14:31:07.945Z,4.78
2019-04-16T14:33:55.899Z,5.03
2019-04-16T14:36:26.040Z,5.62
2019-04-16T14:39:15.722Z,5.25
2019-04-16T14:41:49.939Z,5.30
2019-04-16T14:44:19.205Z,4.35
2019-04-16T14:46:49.225Z,5.08
2019-04-16T14:49:19.231Z,4.17
2019-04-16T14:51:49.236Z,4.20
2019-04-16T14:54:29.943Z,4.90
2019-04-16T14:57:01.467Z,3.98
2019-04-16T14:59:35.388Z,3.87
2019-04-16T15:02:07.186Z,4.53
2019-04-16T15:04:43.219Z,6.33
2019-04-16T15:07:22.947Z,5.17
2019-04-16T15:09:54.562Z,4.37
2019-04-16T15:12:27.290Z,3.52
2019-04-16T15:14:59.203Z,4.47
2019-04-16T15:17:33.700Z,4.30
2019-04-16T15:20:08.382Z,4.67
2019-04-16T15:22:42.986Z,9.18
2019-04-16T15:25:14.665Z,5.20
2019-04-16T15:27:49.705Z,5.30
2019-04-16T15:30:28.690Z,6.40
2019-04-16T15:33:07.299Z,5.60
2019-04-16T15:35:39.433Z,4.50
2019-04-16T15:38:29.582Z,2.92
2019-04-16T15:41:17.521Z,3.90
2019-04-16T15:43:50.924Z,4.20
2019-04-16T15:46:41.348Z,4.80
2019-04-16T15:49:24.203Z,4.75
2019-04-16T15:52:08.759Z,5.42
2019-04-16T15:54:53.248Z,5.33
2019-04-16T15:57:24.899Z,4.33
2019-04-16T16:00:02.488Z,5.33
2019-04-16T16:02:50.431Z,6.00
2019-04-16T16:05:30.709Z,5.67
2019-04-16T16:08:05.347Z,7.00
2019-04-16T16:10:39.814Z,6.40
2019-04-16T16:13:09.860Z,4.67
2019-04-16T16:15:42.838Z,4.97
2019-04-16T16:18:13.571Z,5.40
2019-04-16T16:20:43.904Z,5.80
2019-04-16T16:23:15.241Z,5.60
2019-04-16T16:25:45.571Z,6.70
2019-04-16T16:28:15.510Z,7.13
2019-04-16T16:30:45.578Z,7.73
2019-04-16T16:33:16.698Z,11.60
2019-04-16T16:35:57.809Z,10.90
2019-04-16T16:38:20.814Z,9.80
2019-04-16T16:40:50.547Z,8.33
2019-04-16T16:43:20.699Z,7.43
2019-04-16T16:46:07.541Z,7.17
2019-04-16T16:48:37.498Z,6.97
2019-04-16T16:51:07.500Z,6.90
2019-04-16T16:53:42.055Z,11.03
2019-04-16T16:56:13.803Z,8.10
2019-04-16T16:58:45.342Z,7.50
2019-04-16T17:01:33.576Z,6.80
2019-04-16T17:04:07.882Z,7.67
2019-04-16T17:06:37.883Z,8.50
2019-04-16T17:09:09.469Z,7.00
2019-04-16T17:11:40.116Z,6.70
2019-04-16T17:14:10.976Z,8.03
2019-04-16T17:16:40.937Z,8.60
2019-04-16T17:19:11.335Z,7.13
2019-04-16T17:21:41.686Z,7.93
2019-04-16T17:24:12.837Z,6.10
2019-04-16T17:26:43.510Z,6.63
2019-04-16T17:29:13.642Z,7.10
2019-04-16T17:31:43.614Z,4.90
2019-04-16T17:34:13.654Z,7.23
2019-04-16T17:36:43.746Z,6.80
2019-04-16T17:39:15.210Z,7.07
2019-04-16T17:41:55.260Z,8.37
2019-04-16T17:44:31.610Z,6.80
2019-04-16T17:47:09.360Z,8.30
2019-04-16T17:49:46.783Z,8.80
2019-04-16T17:52:21.279Z,8.10
2019-04-16T17:54:55.787Z,6.50
2019-04-16T17:57:29.860Z,7.80
2019-04-16T18:00:04.373Z,9.00
2019-04-16T18:02:42.759Z,9.30
2019-04-16T18:05:18.170Z,8.80
2019-04-16T18:07:49.783Z,11.37
2019-04-16T18:10:37.504Z,11.67
2019-04-16T18:13:09.184Z,12.97
2019-04-16T18:15:42.733Z,10.00
2019-04-16T18:18:16.895Z,8.37
2019-04-16T18:20:58.727Z,8.17
2019-04-16T18:23:46.754Z,8.60
2019-04-16T18:26:27.650Z,8.47
2019-04-16T18:29:15.496Z,9.13
2019-04-16T18:31:47.269Z,8.63
2019-04-16T18:34:30.914Z,8.53
2019-04-16T18:37:19.569Z,9.33
2019-04-16T18:40:09.429Z,15.40
2019-04-16T18:42:50.163Z,13.33
2019-04-16T18:45:38.303Z,12.53
2019-04-16T18:48:15.793Z,13.67
2019-04-16T18:50:46.455Z,14.37
2019-04-16T18:53:17.181Z,13.00
2019-04-16T18:55:47.992Z,9.90
2019-04-16T18:58:18.727Z,11.07
2019-04-16T19:00:50.687Z,10.07
2019-04-16T19:03:21.211Z,24.50
2019-04-16T19:05:52.422Z,32.70
2019-04-16T19:08:22.884Z,22.50
2019-04-16T19:10:53.421Z,19.77
2019-04-16T19:13:24.047Z,19.37
2019-04-16T19:15:54.878Z,15.73
2019-04-16T19:18:25.406Z,17.77
2019-04-16T19:20:55.516Z,16.33
2019-04-16T19:23:26.148Z,15.33
2019-04-16T19:25:56.897Z,15.40
2019-04-16T19:28:27.521Z,15.80
2019-04-16T19:30:58.049Z,15.27
2019-04-16T19:33:33.363Z,12.37
2019-04-16T19:36:00.642Z,14.70
2019-04-16T19:38:31.273Z,16.70
2019-04-16T19:41:02.214Z,15.07
2019-04-16T19:43:35.281Z,14.00
2019-04-16T19:46:04.897Z,13.93
2019-04-16T19:48:36.402Z,13.13
2019-04-16T19:51:08.513Z,11.27
2019-04-16T19:53:39.157Z,14.50
2019-04-16T19:56:09.768Z,13.70
2019-04-16T19:58:40.418Z,12.97
2019-04-16T20:01:12.105Z,13.07
2019-04-16T20:03:43.481Z,13.30
2019-04-16T20:06:13.853Z,14.97
2019-04-16T20:08:44.374Z,17.17
2019-04-16T20:11:20.488Z,15.47
2019-04-16T20:13:49.324Z,14.83
2019-04-16T20:16:19.648Z,14.70
2019-04-16T20:18:51.474Z,15.20
2019-04-16T20:21:22.546Z,15.63
2019-04-16T20:23:53.150Z,13.97
2019-04-16T20:26:23.808Z,13.63
2019-04-16T20:28:54.336Z,14.13
2019-04-16T20:31:25.071Z,12.83
2019-04-16T20:34:12.540Z,15.70
2019-04-16T20:36:43.740Z,15.73
2019-04-16T20:39:14.268Z,14.43
2019-04-16T20:41:45.618Z,13.97
2019-04-16T20:44:15.941Z,13.33
2019-04-16T20:46:46.270Z,10.30
2019-04-16T20:49:17.471Z,10.47
2019-04-16T20:51:48.757Z,9.17
2019-04-16T20:54:19.282Z,11.80
2019-04-16T20:56:49.962Z,9.60
2019-04-16T20:59:21.372Z,9.20
2019-04-16T21:01:51.894Z,11.23
2019-04-16T21:04:22.216Z,10.90
2019-04-16T21:06:52.751Z,10.00
2019-04-16T21:09:23.068Z,9.90
2019-04-16T21:11:53.585Z,9.40
2019-04-16T21:14:23.716Z,10.20
2019-04-16T21:16:54.536Z,8.70
2019-04-16T21:19:26.620Z,9.93
2019-04-16T21:21:59.542Z,12.00
2019-04-16T21:24:28.709Z,9.93
2019-04-16T21:26:59.021Z,9.83
2019-04-16T21:29:34.759Z,10.03
2019-04-16T21:32:10.281Z,8.30
2019-04-16T21:34:44.545Z,10.33
2019-04-16T21:37:33.289Z,8.90
2019-04-16T21:40:05.660Z,9.27
2019-04-16T21:42:36.188Z,8.63
2019-04-16T21:45:07.715Z,8.23
2019-04-16T21:47:38.065Z,8.20
2019-04-16T21:50:08.623Z,8.20
2019-04-16T21:52:38.713Z,7.40
2019-04-16T21:55:09.044Z,8.30
2019-04-16T21:57:39.360Z,7.90
2019-04-16T22:00:13.370Z,7.90
2019-04-16T22:02:43.992Z,7.73
2019-04-16T22:05:16.728Z,7.47
2019-04-16T22:07:46.186Z,7.27
2019-04-16T22:10:16.713Z,6.93
2019-04-16T22:12:47.825Z,7.03
2019-04-16T22:15:19.412Z,7.40
2019-04-16T22:17:49.732Z,7.97
2019-04-16T22:20:20.057Z,8.03
2019-04-16T22:22:50.790Z,8.43
2019-04-16T22:25:23.778Z,8.30
2019-04-16T22:27:53.689Z,7.70
2019-04-16T22:30:24.014Z,7.40
2019-04-16T22:32:54.339Z,7.60
2019-04-16T22:35:24.661Z,7.43
2019-04-16T22:37:55.398Z,7.90
2019-04-16T22:40:29.694Z,7.73
2019-04-16T22:43:07.001Z,8.57
2019-04-16T22:45:37.630Z,8.77
2019-04-16T22:48:08.158Z,8.47
2019-04-16T22:50:38.842Z,8.63
2019-04-16T22:53:09.965Z,8.57
2019-04-16T22:55:42.638Z,8.40
2019-04-16T22:58:26.340Z,9.43
2019-04-16T23:00:58.213Z,9.13
2019-04-16T23:03:28.740Z,9.50
2019-04-16T23:06:00.897Z,9.93
2019-04-16T23:08:31.228Z,9.93
2019-04-16T23:11:01.552Z,9.77
2019-04-16T23:13:32.641Z,9.43
2019-04-16T23:16:04.044Z,9.83
2019-04-16T23:18:34.570Z,10.43
2019-04-16T23:21:09.372Z,10.40
2019-04-16T23:23:36.653Z,9.97
2019-04-16T23:26:07.181Z,10.80
2019-04-16T23:28:39.748Z,10.53
2019-04-16T23:31:09.876Z,10.87
2019-04-16T23:33:40.609Z,10.73
2019-04-16T23:36:15.352Z,10.43
2019-04-16T23:38:42.691Z,9.87
2019-04-16T23:41:16.701Z,10.20
2019-04-16T23:43:53.591Z,10.40
2019-04-16T23:46:43.767Z,11.10
2019-04-16T23:49:32.115Z,10.27
2019-04-16T23:52:04.371Z,10.57
2019-04-16T23:54:52.832Z,9.50
2019-04-16T23:57:35.858Z,10.17
